createdAt,value
2023-01-27T00:00:23.786Z,102010.25
2023-01-27T00:03:26.701Z,102019.00
2023-01-27T00:06:29.311Z,102020.75
2023-01-27T00:09:33.262Z,102036.53
2023-01-27T00:12:53.507Z,102033.06
2023-01-27T00:15:56.703Z,102029.53
2023-01-27T00:18:59.363Z,102035.69
2023-01-27T00:22:19.431Z,102029.56
2023-01-27T00:25:23.428Z,102034.81
2023-01-27T00:28:26.155Z,102033.03
2023-01-27T00:31:46.513Z,102039.19
2023-01-27T00:34:49.341Z,102047.09
2023-01-27T00:37:52.291Z,102047.97
2023-01-27T00:41:14.026Z,102043.56
2023-01-27T00:44:16.632Z,102040.06
2023-01-27T00:47:19.237Z,102050.59
2023-01-27T00:50:22.493Z,102061.16
2023-01-27T00:53:25.136Z,102050.59
2023-01-27T00:56:29.237Z,102059.38
2023-01-27T00:59:31.862Z,102069.91
2023-01-27T01:02:34.489Z,102064.63
2023-01-27T01:05:37.199Z,102068.16
2023-01-27T01:08:40.564Z,102073.44
2023-01-27T01:11:44.527Z,102066.41
2023-01-27T01:14:47.137Z,102068.13
2023-01-27T01:17:49.726Z,102071.69
2023-01-27T01:20:52.331Z,102063.78
2023-01-27T01:23:55.066Z,102077.81
2023-01-27T01:26:59.071Z,102071.66
2023-01-27T01:30:02.013Z,102079.56
2023-01-27T01:33:05.078Z,102080.47
2023-01-27T01:36:10.876Z,102077.81
2023-01-27T01:39:13.481Z,102080.41
2023-01-27T01:42:17.432Z,102084.84
2023-01-27T01:45:54.352Z,102080.41
2023-01-27T01:49:01.907Z,102091.84
2023-01-27T01:52:10.215Z,102084.84
2023-01-27T01:55:13.593Z,102084.81
2023-01-27T01:58:17.937Z,102094.50
2023-01-27T02:01:20.563Z,102095.34
2023-01-27T02:04:27.522Z,102100.66
2023-01-27T02:07:36.631Z,102098.88
2023-01-27T02:10:39.769Z,102093.59
2023-01-27T02:13:44.639Z,102099.72
2023-01-27T02:16:47.879Z,102099.72
2023-01-27T02:19:59.482Z,102099.75
2023-01-27T02:23:08.946Z,102102.44
2023-01-27T02:26:18.776Z,102105.00
2023-01-27T02:29:22.737Z,102113.78
2023-01-27T02:32:26.711Z,102113.81
2023-01-27T02:35:34.732Z,102116.44
2023-01-27T02:38:41.581Z,102119.94
2023-01-27T02:41:49.947Z,102120.81
2023-01-27T02:44:52.512Z,102119.06
2023-01-27T02:47:55.207Z,102126.06
2023-01-27T02:50:57.944Z,102127.84
2023-01-27T02:54:00.709Z,102132.25
2023-01-27T02:57:04.801Z,102126.94
2023-01-27T03:00:09.630Z,102128.69
2023-01-27T03:03:12.223Z,102128.69
2023-01-27T03:06:15.338Z,102127.81
2023-01-27T03:09:17.936Z,102136.63
2023-01-27T03:12:21.916Z,102140.09
2023-01-27T03:15:43.054Z,102148.88
2023-01-27T03:18:47.308Z,102141.84
2023-01-27T03:21:51.155Z,102145.34
2023-01-27T03:24:53.969Z,102149.72
2023-01-27T03:27:58.366Z,102156.75
2023-01-27T03:31:02.090Z,102153.22
2023-01-27T03:34:05.230Z,102161.16
2023-01-27T03:37:25.757Z,102166.38
2023-01-27T03:40:46.619Z,102184.75
2023-01-27T03:44:08.366Z,102180.38
2023-01-27T03:47:11.237Z,102180.41
2023-01-27T03:50:19.145Z,102182.13
2023-01-27T03:53:21.945Z,102186.53
2023-01-27T03:56:24.679Z,102188.28
2023-01-27T03:59:28.591Z,102188.25
2023-01-27T04:02:51.665Z,102204.88
2023-01-27T04:06:11.980Z,102205.88
2023-01-27T04:09:19.676Z,102198.00
2023-01-27T04:12:22.282Z,102206.81
2023-01-27T04:15:26.207Z,102200.53
2023-01-27T04:18:28.793Z,102201.47
2023-01-27T04:21:31.685Z,102201.44
2023-01-27T04:24:34.341Z,102203.25
2023-01-27T04:27:36.929Z,102207.56
2023-01-27T04:30:40.953Z,102222.50
2023-01-27T04:33:43.698Z,102211.13
2023-01-27T04:36:47.558Z,102214.69
2023-01-27T04:39:50.160Z,102214.63
2023-01-27T04:42:54.927Z,102217.16
2023-01-27T04:45:58.960Z,102213.69
2023-01-27T04:49:01.751Z,102225.94
2023-01-27T04:52:04.466Z,102231.16
2023-01-27T04:55:08.104Z,102233.06
2023-01-27T04:58:13.757Z,102228.66
2023-01-27T05:01:17.761Z,102245.06
2023-01-27T05:04:20.342Z,102256.53
2023-01-27T05:07:22.962Z,102248.81
2023-01-27T05:10:25.542Z,102251.25
2023-01-27T05:13:28.120Z,102247.78
2023-01-27T05:16:32.144Z,102255.72
2023-01-27T05:19:35.305Z,102257.53
2023-01-27T05:22:37.866Z,102259.25
2023-01-27T05:25:43.478Z,102257.63
2023-01-27T05:28:48.079Z,102262.81
2023-01-27T05:31:52.053Z,102259.38
2023-01-27T05:34:54.706Z,102267.19
2023-01-27T05:37:57.308Z,102261.97
2023-01-27T05:41:02.008Z,102261.16
2023-01-27T05:44:04.791Z,102263.56
2023-01-27T05:47:08.712Z,102260.09
2023-01-27T05:50:11.966Z,102259.19
2023-01-27T05:53:14.559Z,102258.13
2023-01-27T05:56:19.304Z,102269.69
2023-01-27T05:59:21.898Z,102260.88
2023-01-27T06:02:25.824Z,102257.34
2023-01-27T06:05:28.472Z,102281.88
2023-01-27T06:08:31.131Z,102272.38
2023-01-27T06:11:33.745Z,102288.25
2023-01-27T06:14:36.288Z,102287.22
2023-01-27T06:17:40.213Z,102291.78
2023-01-27T06:20:43.707Z,102287.31
2023-01-27T06:23:46.297Z,102288.34
2023-01-27T06:26:48.857Z,102292.75
2023-01-27T06:29:51.446Z,102297.97
2023-01-27T06:32:56.349Z,102310.00
2023-01-27T06:36:02.624Z,102317.06
2023-01-27T06:39:05.246Z,102309.25
2023-01-27T06:42:09.676Z,102320.72
2023-01-27T06:45:13.357Z,102327.78
2023-01-27T06:48:17.291Z,102333.81
2023-01-27T06:51:19.857Z,102336.59
2023-01-27T06:54:22.421Z,102339.81
2023-01-27T06:57:25.145Z,102331.16
2023-01-27T07:00:27.911Z,102345.13
2023-01-27T07:03:31.888Z,102346.94
2023-01-27T07:06:34.489Z,102352.78
2023-01-27T07:09:51.517Z,102359.19
2023-01-27T07:13:04.339Z,102364.41
2023-01-27T07:16:07.560Z,102368.84
2023-01-27T07:19:12.541Z,102381.06
2023-01-27T07:22:15.121Z,102376.59
2023-01-27T07:25:18.074Z,102386.47
2023-01-27T07:28:20.685Z,102399.63
2023-01-27T07:31:23.898Z,102398.66
2023-01-27T07:34:27.988Z,102401.25
2023-01-27T07:37:30.572Z,102408.09
2023-01-27T07:40:33.191Z,102416.28
2023-01-27T07:43:35.821Z,102412.94
2023-01-27T07:46:38.401Z,102410.34
2023-01-27T07:49:42.332Z,102417.69
2023-01-27T07:52:44.946Z,102424.75
2023-01-27T07:55:47.548Z,102418.00
2023-01-27T07:58:50.112Z,102427.69
2023-01-27T08:01:52.721Z,102427.81
2023-01-27T08:04:56.634Z,102425.78
2023-01-27T08:07:59.311Z,102425.69
2023-01-27T08:11:02.033Z,102430.84
2023-01-27T08:14:05.117Z,102425.94
2023-01-27T08:17:07.886Z,102430.41
2023-01-27T08:20:13.469Z,102434.81
2023-01-27T08:23:16.207Z,102435.78
2023-01-27T08:26:18.886Z,102433.16
2023-01-27T08:29:21.533Z,102433.19
2023-01-27T08:32:24.114Z,102427.63
2023-01-27T08:35:28.047Z,102429.47
2023-01-27T08:38:30.651Z,102431.19
2023-01-27T08:41:33.220Z,102438.97
2023-01-27T08:44:36.100Z,102445.22
2023-01-27T08:47:38.704Z,102453.94
2023-01-27T08:50:43.736Z,102450.44
2023-01-27T08:53:46.433Z,102455.44
2023-01-27T08:56:49.038Z,102450.53
2023-01-27T08:59:51.640Z,102453.13
2023-01-27T09:02:54.272Z,102457.53
2023-01-27T09:05:58.640Z,102455.53
2023-01-27T09:09:11.916Z,102461.78
2023-01-27T09:12:15.096Z,102469.41
2023-01-27T09:15:17.801Z,102477.41
2023-01-27T09:18:20.846Z,102476.63
2023-01-27T09:21:24.883Z,102482.09
2023-01-27T09:24:27.667Z,102482.09
2023-01-27T09:27:39.044Z,102482.06
2023-01-27T09:30:43.281Z,102480.97
2023-01-27T09:33:47.214Z,102480.19
2023-01-27T09:36:55.112Z,102501.00
2023-01-27T09:40:01.965Z,102499.47
2023-01-27T09:43:25.262Z,102492.56
2023-01-27T09:46:39.613Z,102497.63
2023-01-27T09:50:00.693Z,102497.84
2023-01-27T09:53:29.936Z,102496.22
2023-01-27T09:56:47.637Z,102491.44
2023-01-27T10:00:13.296Z,102495.63
2023-01-27T10:03:28.369Z,102500.19
2023-01-27T10:06:51.295Z,102494.19
2023-01-27T10:10:09.090Z,102496.75
2023-01-27T10:13:23.658Z,102500.25
2023-01-27T10:16:43.275Z,102493.47
2023-01-27T10:20:02.437Z,102496.63
2023-01-27T10:23:16.301Z,102488.88
2023-01-27T10:26:28.743Z,102497.44
2023-01-27T10:29:40.310Z,102488.09
2023-01-27T10:32:45.910Z,102494.94
2023-01-27T10:35:53.271Z,102504.50
2023-01-27T10:39:09.274Z,102489.91
2023-01-27T10:42:25.067Z,102487.22
2023-01-27T10:45:31.704Z,102485.56
2023-01-27T10:48:43.475Z,102483.97
2023-01-27T10:51:53.460Z,102490.56
2023-01-27T10:55:01.219Z,102490.94
2023-01-27T10:58:11.857Z,102483.25
2023-01-27T11:01:21.317Z,102483.88
2023-01-27T11:04:33.465Z,102480.41
2023-01-27T11:07:47.424Z,102472.53
2023-01-27T11:11:12.199Z,102472.50
2023-01-27T11:14:26.037Z,102475.09
2023-01-27T11:17:32.923Z,102468.66
2023-01-27T11:20:40.461Z,102476.75
2023-01-27T11:23:45.812Z,102471.38
2023-01-27T11:26:53.654Z,102476.75
2023-01-27T11:30:04.298Z,102478.19
2023-01-27T11:33:18.870Z,102467.16
2023-01-27T11:36:21.695Z,102479.44
2023-01-27T11:39:24.963Z,102487.75
2023-01-27T11:42:32.551Z,102472.22
2023-01-27T11:45:38.189Z,102475.00
2023-01-27T11:48:43.354Z,102469.91
2023-01-27T11:51:45.982Z,102462.84
2023-01-27T11:54:54.745Z,102463.50
2023-01-27T11:58:07.272Z,102472.22
2023-01-27T12:01:17.876Z,102466.16
2023-01-27T12:04:25.067Z,102461.78
2023-01-27T12:07:39.407Z,102455.75
2023-01-27T12:10:43.054Z,102462.66
2023-01-27T12:13:50.293Z,102459.28
2023-01-27T12:16:54.953Z,102448.72
2023-01-27T12:19:59.902Z,102447.34
2023-01-27T12:23:07.740Z,102447.34
2023-01-27T12:26:12.282Z,102453.34
2023-01-27T12:29:20.511Z,102458.41
2023-01-27T12:32:34.390Z,102453.19
2023-01-27T12:35:37.865Z,102450.50
2023-01-27T12:38:46.800Z,102457.41
2023-01-27T12:41:49.452Z,102453.19
2023-01-27T12:44:52.049Z,102449.97
2023-01-27T12:48:17.679Z,102449.22
2023-01-27T12:51:22.510Z,102449.13
2023-01-27T12:54:27.926Z,102450.63
2023-01-27T12:57:33.971Z,102453.00
2023-01-27T13:00:36.769Z,102443.00
2023-01-27T13:03:42.938Z,102447.69
2023-01-27T13:06:48.990Z,102451.94
2023-01-27T13:09:55.713Z,102452.41
2023-01-27T13:13:00.717Z,102447.97
2023-01-27T13:16:14.960Z,102452.31
2023-01-27T13:19:19.841Z,102449.09
2023-01-27T13:22:24.930Z,102448.16
2023-01-27T13:25:33.758Z,102441.84
2023-01-27T13:28:52.148Z,102448.03
2023-01-27T13:32:02.796Z,102453.00
2023-01-27T13:35:18.191Z,102448.78
2023-01-27T13:38:25.442Z,102444.31
2023-01-27T13:41:36.026Z,102442.63
2023-01-27T13:44:42.183Z,102451.69
2023-01-27T13:47:51.967Z,102449.75
2023-01-27T13:51:03.421Z,102449.66
2023-01-27T13:54:06.697Z,102451.97
2023-01-27T13:57:23.049Z,102441.22
2023-01-27T14:00:33.401Z,102440.88
2023-01-27T14:03:58.860Z,102449.66
2023-01-27T14:07:12.963Z,102448.41
2023-01-27T14:10:25.400Z,102448.47
2023-01-27T14:13:40.514Z,102453.72
2023-01-27T14:16:57.373Z,102453.84
2023-01-27T14:20:28.814Z,102454.75
2023-01-27T14:23:43.697Z,102453.78
2023-01-27T14:26:54.399Z,102460.88
2023-01-27T14:30:07.275Z,102456.22
2023-01-27T14:33:17.741Z,102452.19
2023-01-27T14:36:26.760Z,102454.59
2023-01-27T14:39:41.760Z,102458.88
2023-01-27T14:42:56.290Z,102463.91
2023-01-27T14:46:09.110Z,102453.41
2023-01-27T14:49:21.161Z,102456.75
2023-01-27T14:52:35.014Z,102457.13
2023-01-27T14:55:47.425Z,102457.44
2023-01-27T14:59:00.082Z,102453.75
2023-01-27T15:02:12.502Z,102460.44
2023-01-27T15:05:22.347Z,102455.44
2023-01-27T15:08:33.661Z,102452.09
2023-01-27T15:11:59.806Z,102458.66
2023-01-27T15:15:20.367Z,102458.03
2023-01-27T15:18:41.588Z,102472.66
2023-01-27T15:22:04.245Z,102474.63
2023-01-27T15:25:21.952Z,102479.13
2023-01-27T15:28:30.075Z,102480.88
2023-01-27T15:31:33.407Z,102498.94
2023-01-27T15:34:36.067Z,102494.94
2023-01-27T15:37:58.742Z,102493.13
2023-01-27T15:41:12.685Z,102497.78
2023-01-27T15:44:28.995Z,102493.81
2023-01-27T15:47:35.078Z,102503.25
2023-01-27T15:50:40.692Z,102506.09
2023-01-27T15:53:46.704Z,102504.25
2023-01-27T15:56:52.967Z,102506.69
2023-01-27T16:00:05.167Z,102507.88
2023-01-27T16:03:21.750Z,102513.91
2023-01-27T16:06:26.840Z,102515.72
2023-01-27T16:09:37.240Z,102520.97
2023-01-27T16:12:44.798Z,102518.34
2023-01-27T16:15:48.850Z,102518.38
2023-01-27T16:19:00.247Z,102521.84
2023-01-27T16:22:05.590Z,102528.56
2023-01-27T16:25:20.031Z,102520.69
2023-01-27T16:28:27.228Z,102529.44
2023-01-27T16:31:33.190Z,102526.75
2023-01-27T16:34:40.925Z,102531.19
2023-01-27T16:38:00.371Z,102544.56
2023-01-27T16:41:09.221Z,102545.47
2023-01-27T16:44:20.878Z,102545.47
2023-01-27T16:47:29.589Z,102545.44
2023-01-27T16:50:34.742Z,102551.53
2023-01-27T16:53:37.813Z,102549.03
2023-01-27T16:56:41.298Z,102559.53
2023-01-27T16:59:43.910Z,102557.03
2023-01-27T17:02:48.872Z,102557.84
2023-01-27T17:05:53.384Z,102558.66
2023-01-27T17:08:56.220Z,102557.63
2023-01-27T17:11:59.303Z,102558.22
2023-01-27T17:15:10.295Z,102552.81
2023-01-27T17:18:16.067Z,102560.22
2023-01-27T17:21:29.316Z,102565.38
2023-01-27T17:24:34.424Z,102572.53
2023-01-27T17:27:40.521Z,102568.28
2023-01-27T17:30:46.695Z,102565.69
2023-01-27T17:33:59.148Z,102574.00
2023-01-27T17:37:23.286Z,102572.63
2023-01-27T17:40:25.875Z,102571.78
2023-01-27T17:43:31.879Z,102569.31
2023-01-27T17:46:35.166Z,102572.81
2023-01-27T17:49:40.647Z,102571.91
2023-01-27T17:52:52.155Z,102563.91
2023-01-27T17:55:56.738Z,102568.94
2023-01-27T17:59:06.042Z,102570.78
2023-01-27T18:02:17.427Z,102568.28
2023-01-27T18:05:23.225Z,102574.38
2023-01-27T18:08:25.966Z,102574.38
2023-01-27T18:11:32.042Z,102589.41
2023-01-27T18:14:36.076Z,102581.06
2023-01-27T18:17:38.767Z,102579.69
2023-01-27T18:20:42.713Z,102593.78
2023-01-27T18:23:47.646Z,102592.75
2023-01-27T18:26:51.197Z,102591.94
2023-01-27T18:29:56.852Z,102587.66
2023-01-27T18:33:03.159Z,102593.31
2023-01-27T18:36:20.567Z,102588.28
2023-01-27T18:39:30.476Z,102598.38
2023-01-27T18:42:33.059Z,102603.69
2023-01-27T18:45:35.628Z,102594.47
2023-01-27T18:48:40.051Z,102600.50
2023-01-27T18:51:44.079Z,102599.88
2023-01-27T18:54:46.662Z,102606.94
2023-01-27T18:57:50.534Z,102599.91
2023-01-27T19:00:55.649Z,102600.81
2023-01-27T19:03:58.261Z,102604.31
2023-01-27T19:07:05.050Z,102597.31
2023-01-27T19:10:14.594Z,102598.66
2023-01-27T19:13:17.932Z,102590.16
2023-01-27T19:16:20.677Z,102590.22
2023-01-27T19:19:24.355Z,102600.75
2023-01-27T19:22:28.292Z,102605.13
2023-01-27T19:25:31.342Z,102610.38
2023-01-27T19:28:36.630Z,102616.03
2023-01-27T19:31:39.324Z,102613.63
2023-01-27T19:34:42.265Z,102610.28
2023-01-27T19:37:46.398Z,102615.75
2023-01-27T19:40:49.120Z,102611.25
2023-01-27T19:43:51.710Z,102608.63
2023-01-27T19:46:55.555Z,102605.09
2023-01-27T19:49:58.129Z,102605.03
2023-01-27T19:53:02.107Z,102614.75
2023-01-27T19:56:05.185Z,102610.91
2023-01-27T19:59:08.118Z,102609.25
2023-01-27T20:02:13.250Z,102604.94
2023-01-27T20:05:16.405Z,102605.91
2023-01-27T20:08:22.808Z,102605.59
2023-01-27T20:11:35.055Z,102609.09
2023-01-27T20:14:37.667Z,102616.88
2023-01-27T20:17:40.283Z,102605.75
2023-01-27T20:20:44.139Z,102600.34
2023-01-27T20:23:48.395Z,102605.59
2023-01-27T20:26:50.962Z,102602.31
2023-01-27T20:29:53.573Z,102601.47
2023-01-27T20:32:56.687Z,102599.66
2023-01-27T20:35:59.281Z,102604.09
2023-01-27T20:39:03.398Z,102592.53
2023-01-27T20:42:06.336Z,102596.81
2023-01-27T20:45:09.544Z,102591.44
2023-01-27T20:48:12.274Z,102589.66
2023-01-27T20:51:16.157Z,102591.59
2023-01-27T20:54:20.195Z,102597.53
2023-01-27T20:57:23.913Z,102592.94
2023-01-27T21:00:26.993Z,102585.81
2023-01-27T21:03:29.639Z,102587.47
2023-01-27T21:06:32.223Z,102587.47
2023-01-27T21:09:36.170Z,102588.09
2023-01-27T21:12:38.774Z,102589.84
2023-01-27T21:15:47.395Z,102590.88
2023-01-27T21:18:50.236Z,102586.25
2023-01-27T21:21:52.846Z,102581.88
2023-01-27T21:24:56.767Z,102585.16
2023-01-27T21:27:59.371Z,102583.53
2023-01-27T21:31:06.500Z,102581.78
2023-01-27T21:34:11.224Z,102573.81
2023-01-27T21:37:13.868Z,102581.75
2023-01-27T21:40:18.333Z,102579.91
2023-01-27T21:43:38.314Z,102578.94
2023-01-27T21:46:40.883Z,102580.50
2023-01-27T21:50:04.234Z,102588.34
2023-01-27T21:53:09.828Z,102591.09
2023-01-27T21:56:13.779Z,102593.50
2023-01-27T21:59:16.526Z,102597.03
2023-01-27T22:02:19.121Z,102582.06
2023-01-27T22:05:22.074Z,102581.38
2023-01-27T22:08:24.672Z,102576.13
2023-01-27T22:11:28.648Z,102574.34
2023-01-27T22:14:31.292Z,102577.84
2023-01-27T22:17:34.362Z,102570.00
2023-01-27T22:20:37.576Z,102577.94
2023-01-27T22:23:40.157Z,102574.34
2023-01-27T22:26:44.142Z,102573.59
2023-01-27T22:29:46.773Z,102576.16
2023-01-27T22:32:49.655Z,102572.63
2023-01-27T22:35:59.738Z,102577.84
2023-01-27T22:39:02.418Z,102576.16
2023-01-27T22:42:06.627Z,102580.69
2023-01-27T22:45:11.073Z,102577.19
2023-01-27T22:48:14.274Z,102577.94
2023-01-27T22:51:17.635Z,102584.00
2023-01-27T22:54:20.333Z,102588.50
2023-01-27T22:57:30.012Z,102588.56
2023-01-27T23:00:32.740Z,102585.16
2023-01-27T23:03:35.409Z,102585.06
2023-01-27T23:06:38.047Z,102590.31
2023-01-27T23:09:40.649Z,102602.66
2023-01-27T23:12:44.651Z,102595.59
2023-01-27T23:15:47.309Z,102595.56
2023-01-27T23:18:50.184Z,102593.84
2023-01-27T23:21:52.844Z,102590.41
2023-01-27T23:24:55.485Z,102585.06
2023-01-27T23:27:59.706Z,102579.81
2023-01-27T23:31:02.427Z,102581.59
2023-01-27T23:34:05.100Z,102572.91
2023-01-27T23:37:07.682Z,102570.22
2023-01-27T23:40:11.770Z,102572.91
2023-01-27T23:43:15.698Z,102563.78
2023-01-27T23:46:18.349Z,102572.75
2023-01-27T23:49:21.107Z,102570.28
2023-01-27T23:52:23.687Z,102562.34
2023-01-27T23:55:26.396Z,102572.63
2023-01-27T23:58:30.372Z,102564.94
